createdAt,value
2018-09-03T00:01:54.710Z,15.30
2018-09-03T00:06:58.002Z,15.30
2018-09-03T00:12:01.306Z,15.30
2018-09-03T00:17:04.729Z,15.20
2018-09-03T00:22:08.030Z,15.30
2018-09-03T00:27:11.308Z,15.20
2018-09-03T00:32:20.098Z,15.30
2018-09-03T00:37:28.698Z,15.20
2018-09-03T00:42:37.470Z,15.20
2018-09-03T00:47:40.769Z,15.30
2018-09-03T00:52:44.074Z,15.20
2018-09-03T00:57:47.365Z,15.30
2018-09-03T01:02:50.661Z,15.20
2018-09-03T01:07:53.950Z,15.20
2018-09-03T01:12:57.259Z,15.20
2018-09-03T01:18:01.778Z,15.20
2018-09-03T01:23:05.061Z,15.10
2018-09-03T01:28:08.362Z,15.10
2018-09-03T01:33:11.663Z,15.10
2018-09-03T01:38:14.989Z,15.10
2018-09-03T01:43:18.316Z,15.10
2018-09-03T01:48:21.622Z,15.10
2018-09-03T01:53:24.933Z,15.10
2018-09-03T01:58:28.287Z,15.10
2018-09-03T02:03:31.821Z,15.10
2018-09-03T02:08:35.131Z,15.10
2018-09-03T02:13:38.454Z,15.10
2018-09-03T02:18:41.777Z,15.20
2018-09-03T02:23:45.072Z,15.10
2018-09-03T02:33:51.475Z,15.20
2018-09-03T02:38:54.766Z,15.10
2018-09-03T02:43:58.070Z,15.10
2018-09-03T02:49:01.362Z,15.10
2018-09-03T02:54:04.772Z,15.10
2018-09-03T02:59:08.546Z,15.20
2018-09-03T03:04:11.843Z,15.20
2018-09-03T03:09:15.162Z,15.10
2018-09-03T03:14:18.479Z,15.10
2018-09-03T03:19:21.788Z,15.10
2018-09-03T03:29:28.122Z,15.10
2018-09-03T03:34:31.430Z,15.10
2018-09-03T03:39:34.767Z,15.10
2018-09-03T03:44:38.041Z,15.10
2018-09-03T03:49:41.360Z,15.10
2018-09-03T03:54:44.645Z,15.10
2018-09-03T03:59:47.962Z,15.10
2018-09-03T04:04:51.249Z,15.10
2018-09-03T04:09:54.744Z,15.10
2018-09-03T04:14:58.016Z,15.10
2018-09-03T04:20:04.899Z,15.10
2018-09-03T04:25:08.223Z,15.10
2018-09-03T04:30:12.420Z,15.10
2018-09-03T04:35:15.777Z,15.10
2018-09-03T04:40:19.094Z,15.10
2018-09-03T04:45:22.426Z,15.20
2018-09-03T04:50:25.713Z,15.30
2018-09-03T04:55:29.027Z,15.30
2018-09-03T05:00:32.313Z,15.20
2018-09-03T05:05:35.592Z,15.20
2018-09-03T05:10:38.864Z,15.20
2018-09-03T05:15:42.176Z,15.20
2018-09-03T05:20:45.513Z,15.30
2018-09-03T05:25:48.808Z,15.30
2018-09-03T05:30:52.092Z,15.40
2018-09-03T05:35:55.404Z,15.40
2018-09-03T05:40:58.722Z,15.40
2018-09-03T05:46:02.331Z,15.40
2018-09-03T05:51:06.069Z,15.40
2018-09-03T05:56:09.381Z,15.50
2018-09-03T06:01:12.677Z,15.50
2018-09-03T06:06:15.982Z,15.50
2018-09-03T06:11:19.269Z,15.60
2018-09-03T06:16:24.009Z,15.60
2018-09-03T06:21:27.300Z,15.60
2018-09-03T06:26:30.623Z,15.70
2018-09-03T06:31:33.986Z,15.70
2018-09-03T06:36:37.359Z,15.70
2018-09-03T06:41:40.705Z,15.70
2018-09-03T06:46:44.140Z,15.70
2018-09-03T06:51:47.432Z,15.70
2018-09-03T06:56:50.709Z,15.70
2018-09-03T07:01:54.010Z,15.80
2018-09-03T07:06:57.372Z,15.90
2018-09-03T07:12:00.688Z,16.00
2018-09-03T07:17:03.957Z,16.00
2018-09-03T07:22:08.091Z,16.00
2018-09-03T07:27:11.356Z,16.10
2018-09-03T07:32:14.650Z,16.30
2018-09-03T07:37:17.932Z,16.30
2018-09-03T07:42:21.221Z,16.50
2018-09-03T07:47:24.517Z,16.60
2018-09-03T07:52:27.828Z,16.70
2018-09-03T07:57:31.105Z,16.90
2018-09-03T08:02:34.377Z,17.20
2018-09-03T08:07:37.664Z,17.30
2018-09-03T08:12:41.420Z,17.50
2018-09-03T08:17:44.727Z,17.70
2018-09-03T08:22:48.015Z,17.90
2018-09-03T08:27:51.294Z,18.00
2018-09-03T08:32:54.586Z,18.40
2018-09-03T08:37:57.868Z,18.60
2018-09-03T08:43:01.169Z,18.40
2018-09-03T08:48:04.518Z,18.40
2018-09-03T08:53:07.818Z,18.30
2018-09-03T08:58:11.112Z,18.40
2018-09-03T09:03:19.778Z,18.50
2018-09-03T09:08:23.049Z,18.10
2018-09-03T09:13:26.345Z,18.30
2018-09-03T09:18:30.293Z,18.50
2018-09-03T09:23:33.584Z,18.70
2018-09-03T09:28:36.869Z,19.00
2018-09-03T09:33:40.186Z,18.70
2018-09-03T09:38:43.471Z,18.50
2018-09-03T09:43:46.760Z,18.70
2018-09-03T09:48:50.065Z,18.80
2018-09-03T09:53:53.333Z,18.70
2018-09-03T09:58:56.642Z,18.80
2018-09-03T10:03:59.933Z,18.90
2018-09-03T10:09:03.938Z,19.00
2018-09-03T10:14:07.296Z,19.20
2018-09-03T10:19:10.592Z,19.80
2018-09-03T10:24:13.882Z,21.00
2018-09-03T10:29:17.184Z,21.80
2018-09-03T10:34:20.484Z,22.10
2018-09-03T10:39:30.229Z,21.90
2018-09-03T10:44:33.513Z,21.20
2018-09-03T10:49:36.808Z,20.60
2018-09-03T10:54:40.106Z,21.20
2018-09-03T10:59:43.436Z,20.60
2018-09-03T11:04:46.753Z,19.90
2018-09-03T11:09:50.032Z,19.90
2018-09-03T11:14:53.321Z,20.30
2018-09-03T11:19:59.676Z,20.70
2018-09-03T11:25:03.707Z,20.30
2018-09-03T11:30:08.519Z,20.50
2018-09-03T11:35:11.843Z,21.00
2018-09-03T11:40:15.090Z,20.50
2018-09-03T11:45:20.658Z,20.70
2018-09-03T11:50:31.369Z,21.10
2018-09-03T11:55:34.674Z,21.60
2018-09-03T12:00:38.035Z,21.80
2018-09-03T12:05:41.284Z,21.90
2018-09-03T12:10:44.582Z,22.40
2018-09-03T12:16:24.459Z,22.10
2018-09-03T12:21:27.736Z,21.80
2018-09-03T12:26:31.056Z,22.60
2018-09-03T12:31:34.363Z,22.60
2018-09-03T12:36:37.664Z,22.30
2018-09-03T12:49:05.060Z,22.20
2018-09-03T12:59:11.365Z,21.40
2018-09-03T13:04:14.642Z,22.90
2018-09-03T13:09:17.909Z,23.10
2018-09-03T13:14:21.196Z,22.10
2018-09-03T13:19:26.198Z,22.30
2018-09-03T13:24:29.644Z,22.30
2018-09-03T13:29:35.754Z,22.00
2018-09-03T13:39:42.259Z,21.00
2018-09-03T13:44:45.553Z,21.00
2018-09-03T13:49:49.963Z,21.30
2018-09-03T13:54:53.363Z,21.30
2018-09-03T13:59:56.587Z,21.30
2018-09-03T14:04:59.904Z,21.20
2018-09-03T14:10:03.465Z,21.00
2018-09-03T14:15:06.726Z,20.90
2018-09-03T14:20:10.042Z,20.70
2018-09-03T14:30:16.336Z,20.70
2018-09-03T14:35:19.613Z,20.70
2018-09-03T14:40:22.893Z,22.50
2018-09-03T14:45:26.257Z,22.60
2018-09-03T14:50:29.472Z,25.30
2018-09-03T14:55:32.756Z,26.10
2018-09-03T15:00:36.053Z,25.10
2018-09-03T15:05:39.341Z,26.00
2018-09-03T15:10:42.607Z,26.70
2018-09-03T15:15:45.900Z,27.90
2018-09-03T15:20:49.328Z,28.50
2018-09-03T15:25:52.608Z,28.40
2018-09-03T15:30:55.957Z,26.40
2018-09-03T15:35:59.255Z,25.10
2018-09-03T15:41:02.534Z,24.30
2018-09-03T15:46:06.618Z,23.20
2018-09-03T15:51:09.926Z,23.00
2018-09-03T15:56:13.228Z,22.10
2018-09-03T16:01:16.487Z,21.70
2018-09-03T16:06:19.835Z,20.80
2018-09-03T16:11:23.177Z,20.30
2018-09-03T16:16:26.476Z,20.10
2018-09-03T16:21:29.835Z,20.00
2018-09-03T16:26:33.509Z,19.90
2018-09-03T16:31:36.860Z,19.70
2018-09-03T16:36:40.370Z,19.60
2018-09-03T16:41:43.704Z,19.50
2018-09-03T16:46:47.004Z,19.20
2018-09-03T16:51:50.301Z,19.20
2018-09-03T16:56:53.735Z,19.30
2018-09-03T17:01:57.055Z,19.20
2018-09-03T17:17:06.717Z,18.80
2018-09-03T17:27:14.162Z,18.60
2018-09-03T17:37:21.262Z,18.50
2018-09-03T17:47:27.619Z,18.30
2018-09-03T17:57:33.924Z,18.10
2018-09-03T18:02:37.345Z,18.10
2018-09-03T18:07:41.133Z,18.00
2018-09-03T18:12:44.487Z,18.00
2018-09-03T18:38:02.240Z,17.90
2018-09-03T18:48:08.863Z,17.90
2018-09-03T18:53:12.238Z,17.80
2018-09-03T19:08:21.831Z,17.60
2018-09-03T19:13:25.241Z,17.50
2018-09-03T19:18:28.544Z,17.60
2018-09-03T19:33:38.155Z,17.50
2018-09-03T19:38:41.461Z,17.50
2018-09-03T19:53:51.080Z,17.30
2018-09-03T20:03:57.435Z,17.30
2018-09-03T20:09:00.748Z,17.30
2018-09-03T20:19:07.429Z,17.20
2018-09-03T20:24:10.785Z,17.30
2018-09-03T20:34:17.698Z,17.20
2018-09-03T20:49:28.245Z,17.20
2018-09-03T20:54:31.628Z,17.20
2018-09-03T21:09:40.979Z,17.20
2018-09-03T21:19:47.333Z,17.10
2018-09-03T21:24:50.635Z,17.10
2018-09-03T21:34:57.003Z,17.20
2018-09-03T21:40:00.327Z,17.30
2018-09-03T21:45:03.639Z,17.20
2018-09-03T21:50:06.954Z,17.10
2018-09-03T22:00:13.275Z,16.80
2018-09-03T22:05:16.579Z,16.90
2018-09-03T22:10:19.876Z,16.90
2018-09-03T22:15:23.222Z,16.90
2018-09-03T22:20:26.676Z,16.90
2018-09-03T22:25:30.024Z,16.90
2018-09-03T22:30:33.344Z,16.90
2018-09-03T22:35:36.650Z,16.90
2018-09-03T22:40:40.184Z,16.80
2018-09-03T22:45:43.540Z,16.80
2018-09-03T22:50:46.882Z,16.80
2018-09-03T22:55:50.182Z,16.90
2018-09-03T23:00:53.459Z,16.90
2018-09-03T23:05:56.773Z,16.90
2018-09-03T23:11:00.094Z,17.00
2018-09-03T23:16:03.380Z,17.00
2018-09-03T23:21:06.728Z,17.00
2018-09-03T23:26:10.164Z,17.00
2018-09-03T23:31:13.468Z,17.00
2018-09-03T23:36:16.795Z,17.00
2018-09-03T23:41:20.097Z,17.00
2018-09-03T23:46:23.411Z,16.90
2018-09-03T23:56:29.754Z,16.90
